Accueil
METAR-TAF:

METAR-TAF

Aéroports :

Aéroport de Pérouse-Sant'Egidio

Pérouse, Italie

latitude: 43-05N, longitude: 012-30E, altitude: 208 m

Observation

Le bulletin a été fait il y a 44 minutes, à 20:50 UTC
Vent 3 kt de est
Température 7°C
Humidité 93%
Pression 1001 hPa
Visibilité 10 km ou plus
Nuages fragmentés à une hauteur de 5000 ft

METAR: LIRZ 192050Z 08003KT 9999 BKN050 07/06 Q1001

Heure: 22:34 (21:34 UTC)

Prévision

Le bulletin a été fait il y a 4 heures et 34 minutes, à 17:00 UTC
Prévision valable du 19 à 18 UTC au 20 à 18 UTC
Vent 5 kt de direction variable
Visibilité 10 km ou plus
Nuages épars à une hauteur de 4000 ft
Temporairement
du 19 à 18 UTC au 20 à 08 UTC
averses de pluie

TAF: LIRZ 191700Z 1918/2018 VRB05KT 9999 SCT040 TEMPO 1918/2008 SHRA

Observations et prévisions météorologiques de plus de 4000 aéroports (messages METAR et TAF).

Les stations disponibles sont représentées par des disques jaunes et rouges sur la carte.

Passer la souris dessus pour voir le nom de la station.

Cliquer dessus pour voir les observations et prévisions météorologiques.

Pour changer de carte: cliquez sur les boutons verts avec une croix noire pour zoomer, sur le bouton vert avec un tiret pour effectuer un zoom arrière, ou sur les flèches vertes pour les cartes adjacentes.


METAR-TAF: